Search for airport 
image banner adimage banner ad
image banner ad

SVET - El Manteco Airport

Located in San Diego, Venezuela

ICAO - SVET, IATA -

Data provided by Airmate  

General information

Coordinates: N10°11'45" W67°57'29"
Elevation is 1000 feet MSL.
 
Rated:
View ratings: [VIEW]


View others Airports in Bolívar

Operational data

Open for public use
Current time UTC:
Current local time:
TAF: TAF SVVA 191100Z 1912/2012 09006KT 9999 SCT016 SCT150 TX29/1919 TN23/2008 TEMPO 1916/1920 21004KT BKN016
View NOTAMs / SUP AIP / TFR affecting this airport [VIEW]
Communications frequencies: [VIEW]

Runways:

RWY identifierQFULength (ft)Width (ft)SurfaceLDA (ft)
1090°393798ASP
28270°393798ASP

Airport contact information

Address: San Diego Venezuela

Satellite view of SVET